»·PEaware :: SKY969 KHLN-KLVM

SKY969 :: KHLN-KLVM

FLIGHT INFORMATION

Flight Status: Arrived
Operator:
Sky High Charters
More flights by this operator :: More flights under this callsign
Pilot: Mark P. (13279)
Aircraft: CESSNA 310
(C310)
More flights by this aircraft type
Origin: KHLN Helena Regl
United States
Destination: KLVM Mission
United States
More flights between these airports :: More routes between these airports
Route: +STAKK4 CONNS V2 LVM
File this flight plan on PilotEdge
Remarks:
Altitude:
(Current/Filed)
11,000ft
Speed:
(Current/Filed)
180kts
Departed: 02-Jan-19 09:16 PM
Arrived: 02-Jan-19 10:01 PM
Distance/Time
Traveled:
84nm/0:45
Distance/Time
To Go:
Arrived

Flight Plot

Page will automatically refresh every two minutes.

Flight plan parsing failed; only flown route is shown


Map Options




Map Legend


Flown Route
Filed Route
Departure Airport
Arrival Airport
Navaid (VOR, NDB)
Fix

Horizontal Profiles

Position Reports

Time Latitude Longitude Heading Altitude Ground
Speed
02-Jan-19 20:52 46.602772 -111.995753 269 3880ft 0kts
02-Jan-19 20:53 46.602772 -111.995753 269 3880ft 0kts
02-Jan-19 20:54 46.602772 -111.995753 269 3880ft 0kts
02-Jan-19 20:55 46.602772 -111.995753 269 3880ft 0kts
02-Jan-19 20:56 46.602772 -111.995753 269 3880ft 0kts
02-Jan-19 20:57 46.602772 -111.995753 269 3880ft 0kts
02-Jan-19 20:58 46.602772 -111.995753 269 3880ft 0kts
02-Jan-19 20:59 46.602772 -111.995753 269 3880ft 0kts
02-Jan-19 21:00 46.602772 -111.995753 269 3880ft 0kts
02-Jan-19 21:01 46.602772 -111.995753 269 3880ft 0kts
02-Jan-19 21:02 46.602772 -111.995753 269 3880ft 0kts
02-Jan-19 21:03 46.602772 -111.995753 269 3880ft 0kts
02-Jan-19 21:04 46.602772 -111.995753 269 3880ft 0kts
02-Jan-19 21:05 46.602772 -111.995753 269 3880ft 0kts
02-Jan-19 21:06 46.602772 -111.995753 269 3880ft 0kts
02-Jan-19 21:07 46.602772 -111.995753 269 3880ft 0kts
02-Jan-19 21:08 46.602789 -111.996291 315 3879ft 0kts
02-Jan-19 21:09 46.606608 -111.997710 345 3879ft 20kts
02-Jan-19 21:10 46.607395 -111.998361 44 3879ft 0kts
02-Jan-19 21:11 46.607627 -111.998120 350 3879ft 0kts
02-Jan-19 21:12 46.607628 -111.998120 350 3880ft 0kts
02-Jan-19 21:13 46.607628 -111.998120 350 3880ft 0kts
02-Jan-19 21:14 46.607627 -111.998120 350 3879ft 0kts
02-Jan-19 21:15 46.606278 -111.984608 108 3929ft 109kts
02-Jan-19 21:16 46.603152 -111.934574 108 5477ft 129kts
02-Jan-19 21:17 46.594922 -111.881635 111 7140ft 141kts
02-Jan-19 21:18 46.585751 -111.823210 110 8757ft 156kts
02-Jan-19 21:19 46.574809 -111.753651 107 10122ft 171kts
02-Jan-19 21:20 46.563172 -111.680045 104 10981ft 216kts
02-Jan-19 21:21 46.550672 -111.606634 121 10970ft 216kts
02-Jan-19 21:22 46.508981 -111.562115 197 10966ft 178kts
02-Jan-19 21:23 46.460094 -111.569307 183 10965ft 186kts
02-Jan-19 21:24 46.430223 -111.500062 110 10995ft 217kts
02-Jan-19 21:25 46.404559 -111.422219 116 11015ft 218kts
02-Jan-19 21:26 46.375443 -111.346048 120 11039ft 218kts
02-Jan-19 21:27 46.345958 -111.270615 120 11035ft 217kts
02-Jan-19 21:28 46.316107 -111.194429 120 11036ft 217kts
02-Jan-19 21:29 46.286166 -111.118236 120 11036ft 218kts
02-Jan-19 21:30 46.249964 -111.061572 144 11039ft 213kts
02-Jan-19 21:31 46.203304 -111.008431 147 11038ft 213kts
02-Jan-19 21:32 46.156357 -110.956608 145 11038ft 213kts
02-Jan-19 21:33 46.109797 -110.903838 144 11038ft 213kts
02-Jan-19 21:34 46.064089 -110.850569 144 11070ft 212kts
02-Jan-19 21:35 46.017677 -110.797836 144 11053ft 213kts
02-Jan-19 21:36 45.970883 -110.744923 145 11037ft 214kts
02-Jan-19 21:37 45.924198 -110.692227 145 11021ft 214kts
02-Jan-19 21:38 45.877322 -110.639431 146 11003ft 214kts
02-Jan-19 21:39 45.830456 -110.587029 148 10999ft 213kts
02-Jan-19 21:40 45.783612 -110.535073 146 11001ft 213kts
02-Jan-19 21:41 45.736994 -110.482514 145 11003ft 214kts
02-Jan-19 21:42 45.712724 -110.413839 78 11004ft 211kts
02-Jan-19 21:43 45.737629 -110.342643 55 10996ft 202kts
02-Jan-19 21:44 45.762545 -110.270701 55 10996ft 202kts
02-Jan-19 21:45 45.787600 -110.198745 55 10998ft 201kts
02-Jan-19 21:46 45.807310 -110.123897 93 10981ft 212kts
02-Jan-19 21:47 45.801828 -110.050961 61 10152ft 201kts
02-Jan-19 21:48 45.828202 -109.981761 50 9364ft 197kts
02-Jan-19 21:49 45.863922 -109.978765 286 8706ft 138kts
02-Jan-19 21:50 45.841110 -110.024410 242 8184ft 145kts
02-Jan-19 21:51 45.821342 -110.074529 246 7878ft 144kts
02-Jan-19 21:52 45.808321 -110.125276 254 7596ft 144kts
02-Jan-19 21:53 45.790032 -110.177778 246 8042ft 164kts
02-Jan-19 21:54 45.765620 -110.232046 240 7311ft 154kts
02-Jan-19 21:55 45.753772 -110.282778 267 6715ft 127kts
02-Jan-19 21:56 45.741071 -110.329307 250 6087ft 114kts
02-Jan-19 21:57 45.728064 -110.366640 250 5492ft 101kts
02-Jan-19 21:58 45.717996 -110.401249 257 5270ft 91kts
02-Jan-19 21:59 45.706054 -110.429313 242 4790ft 68kts
02-Jan-19 22:00 45.700076 -110.441907 297 4664ft 6kts
02-Jan-19 22:01 45.699957 -110.442310 149 4664ft 1kts
02-Jan-19 22:02 45.699956 -110.442309 148 4664ft 0kts
02-Jan-19 22:03 45.699956 -110.442309 148 4664ft 0kts
02-Jan-19 22:04 45.699956 -110.442309 148 4664ft 0kts
02-Jan-19 22:05 45.699956 -110.442309 148 4664ft 0kts
02-Jan-19 22:06 45.699956 -110.442309 148 4664ft 0kts

Navigation Log

Ident Type
Flight plan parsing failed, navigation log unavailable